sensor_id;sensor_type;location;lat;lon;timestamp;temperature;humidity
7970;DHT22;4030;52.362;9.206;2024-01-25T00:01:11;9.40;99.90
7970;DHT22;4030;52.362;9.206;2024-01-25T00:03:36;9.40;99.90
7970;DHT22;4030;52.362;9.206;2024-01-25T00:06:02;9.40;99.90
7970;DHT22;4030;52.362;9.206;2024-01-25T00:08:29;9.40;99.90
7970;DHT22;4030;52.362;9.206;2024-01-25T00:10:54;9.40;99.90
7970;DHT22;4030;52.362;9.206;2024-01-25T00:13:20;9.40;99.90
7970;DHT22;4030;52.362;9.206;2024-01-25T00:15:45;9.40;99.90
7970;DHT22;4030;52.362;9.206;2024-01-25T00:18:11;9.30;99.90
7970;DHT22;4030;52.362;9.206;2024-01-25T00:20:37;9.30;99.90
7970;DHT22;4030;52.362;9.206;2024-01-25T00:23:02;9.30;99.90
7970;DHT22;4030;52.362;9.206;2024-01-25T00:25:28;9.40;99.90
7970;DHT22;4030;52.362;9.206;2024-01-25T00:27:54;9.30;99.90
7970;DHT22;4030;52.362;9.206;2024-01-25T00:30:20;9.30;99.90
7970;DHT22;4030;52.362;9.206;2024-01-25T00:32:45;9.30;99.90
7970;DHT22;4030;52.362;9.206;2024-01-25T00:35:11;9.30;99.90
7970;DHT22;4030;52.362;9.206;2024-01-25T00:37:39;9.30;99.90
7970;DHT22;4030;52.362;9.206;2024-01-25T00:40:08;9.30;99.90
7970;DHT22;4030;52.362;9.206;2024-01-25T00:42:52;9.30;99.90
7970;DHT22;4030;52.362;9.206;2024-01-25T00:45:23;9.30;99.90
7970;DHT22;4030;52.362;9.206;2024-01-25T00:47:50;9.30;99.90
7970;DHT22;4030;52.362;9.206;2024-01-25T00:50:17;9.30;99.90
7970;DHT22;4030;52.362;9.206;2024-01-25T00:52:44;9.30;99.90
7970;DHT22;4030;52.362;9.206;2024-01-25T00:55:11;9.30;99.90
7970;DHT22;4030;52.362;9.206;2024-01-25T00:57:37;9.30;99.90
7970;DHT22;4030;52.362;9.206;2024-01-25T01:00:04;9.30;99.90
7970;DHT22;4030;52.362;9.206;2024-01-25T01:02:35;9.30;99.90
7970;DHT22;4030;52.362;9.206;2024-01-25T01:05:02;9.30;99.90
7970;DHT22;4030;52.362;9.206;2024-01-25T01:07:28;9.30;99.90
7970;DHT22;4030;52.362;9.206;2024-01-25T01:09:53;9.30;99.90
7970;DHT22;4030;52.362;9.206;2024-01-25T01:12:19;9.20;99.90
7970;DHT22;4030;52.362;9.206;2024-01-25T01:14:45;9.30;99.90
7970;DHT22;4030;52.362;9.206;2024-01-25T01:17:10;9.20;99.90
7970;DHT22;4030;52.362;9.206;2024-01-25T01:19:36;9.20;99.90
7970;DHT22;4030;52.362;9.206;2024-01-25T01:22:02;9.20;99.90
7970;DHT22;4030;52.362;9.206;2024-01-25T01:24:28;9.20;99.90
7970;DHT22;4030;52.362;9.206;2024-01-25T01:26:53;9.20;99.90
7970;DHT22;4030;52.362;9.206;2024-01-25T01:29:19;9.20;99.90
7970;DHT22;4030;52.362;9.206;2024-01-25T01:31:45;9.20;99.90
7970;DHT22;4030;52.362;9.206;2024-01-25T01:34:10;9.20;99.90
7970;DHT22;4030;52.362;9.206;2024-01-25T01:36:38;9.20;99.90
7970;DHT22;4030;52.362;9.206;2024-01-25T01:39:04;9.20;99.90
7970;DHT22;4030;52.362;9.206;2024-01-25T01:41:29;9.20;99.90
7970;DHT22;4030;52.362;9.206;2024-01-25T01:43:55;9.20;99.90
7970;DHT22;4030;52.362;9.206;2024-01-25T01:46:35;9.20;99.90
7970;DHT22;4030;52.362;9.206;2024-01-25T01:49:04;9.20;99.90
7970;DHT22;4030;52.362;9.206;2024-01-25T01:51:31;9.20;99.90
7970;DHT22;4030;52.362;9.206;2024-01-25T01:53:57;9.10;99.90
7970;DHT22;4030;52.362;9.206;2024-01-25T01:56:27;9.10;99.90
7970;DHT22;4030;52.362;9.206;2024-01-25T01:58:54;9.10;99.90
7970;DHT22;4030;52.362;9.206;2024-01-25T02:01:21;9.10;99.90
7970;DHT22;4030;52.362;9.206;2024-01-25T02:03:47;9.10;99.90
7970;DHT22;4030;52.362;9.206;2024-01-25T02:06:13;9.10;99.90
7970;DHT22;4030;52.362;9.206;2024-01-25T02:08:38;9.00;99.90
7970;DHT22;4030;52.362;9.206;2024-01-25T02:11:04;9.00;99.90
7970;DHT22;4030;52.362;9.206;2024-01-25T02:13:31;9.00;99.90
7970;DHT22;4030;52.362;9.206;2024-01-25T02:15:56;9.00;99.90
7970;DHT22;4030;52.362;9.206;2024-01-25T02:18:22;9.00;99.90
7970;DHT22;4030;52.362;9.206;2024-01-25T02:20:48;9.00;99.90
7970;DHT22;4030;52.362;9.206;2024-01-25T02:23:13;9.00;99.90
7970;DHT22;4030;52.362;9.206;2024-01-25T02:25:39;9.00;99.90
7970;DHT22;4030;52.362;9.206;2024-01-25T02:28:05;8.90;99.90
7970;DHT22;4030;52.362;9.206;2024-01-25T02:30:31;8.90;99.90
7970;DHT22;4030;52.362;9.206;2024-01-25T02:32:56;8.90;99.90
7970;DHT22;4030;52.362;9.206;2024-01-25T02:35:22;8.90;99.90
7970;DHT22;4030;52.362;9.206;2024-01-25T02:37:48;8.90;99.90
7970;DHT22;4030;52.362;9.206;2024-01-25T02:40:16;8.90;99.90
7970;DHT22;4030;52.362;9.206;2024-01-25T02:42:41;8.90;99.90
7970;DHT22;4030;52.362;9.206;2024-01-25T02:45:08;8.90;99.90
7970;DHT22;4030;52.362;9.206;2024-01-25T02:47:33;8.90;99.90
7970;DHT22;4030;52.362;9.206;2024-01-25T02:49:59;8.90;99.90
7970;DHT22;4030;52.362;9.206;2024-01-25T02:52:25;8.90;99.90
7970;DHT22;4030;52.362;9.206;2024-01-25T02:54:50;8.80;99.90
7970;DHT22;4030;52.362;9.206;2024-01-25T02:57:16;8.80;99.90
7970;DHT22;4030;52.362;9.206;2024-01-25T02:59:42;8.80;99.90
7970;DHT22;4030;52.362;9.206;2024-01-25T03:02:08;8.80;99.90
7970;DHT22;4030;52.362;9.206;2024-01-25T03:04:33;8.80;99.90
7970;DHT22;4030;52.362;9.206;2024-01-25T03:06:59;8.80;99.90
7970;DHT22;4030;52.362;9.206;2024-01-25T03:09:25;8.80;99.90
7970;DHT22;4030;52.362;9.206;2024-01-25T03:11:50;8.80;99.90
7970;DHT22;4030;52.362;9.206;2024-01-25T03:14:16;8.70;99.90
7970;DHT22;4030;52.362;9.206;2024-01-25T03:16:42;8.70;99.90
7970;DHT22;4030;52.362;9.206;2024-01-25T03:19:08;8.70;99.90
7970;DHT22;4030;52.362;9.206;2024-01-25T03:21:34;8.70;99.90
7970;DHT22;4030;52.362;9.206;2024-01-25T03:24:00;8.70;99.90
7970;DHT22;4030;52.362;9.206;2024-01-25T03:26:27;8.70;99.90
7970;DHT22;4030;52.362;9.206;2024-01-25T03:28:53;8.60;99.90
7970;DHT22;4030;52.362;9.206;2024-01-25T03:31:19;8.70;99.90
7970;DHT22;4030;52.362;9.206;2024-01-25T03:33:45;8.70;99.90
7970;DHT22;4030;52.362;9.206;2024-01-25T03:36:13;8.60;99.90
7970;DHT22;4030;52.362;9.206;2024-01-25T03:38:40;8.60;99.90
7970;DHT22;4030;52.362;9.206;2024-01-25T03:41:05;8.60;99.90
7970;DHT22;4030;52.362;9.206;2024-01-25T03:43:31;8.60;99.90
7970;DHT22;4030;52.362;9.206;2024-01-25T03:45:57;8.60;99.90
7970;DHT22;4030;52.362;9.206;2024-01-25T03:48:22;8.60;99.90
7970;DHT22;4030;52.362;9.206;2024-01-25T03:50:48;8.60;99.90
7970;DHT22;4030;52.362;9.206;2024-01-25T03:53:14;8.60;99.90
7970;DHT22;4030;52.362;9.206;2024-01-25T03:55:41;8.60;99.90
7970;DHT22;4030;52.362;9.206;2024-01-25T03:58:06;8.60;99.90
7970;DHT22;4030;52.362;9.206;2024-01-25T04:00:32;8.60;99.90
7970;DHT22;4030;52.362;9.206;2024-01-25T04:02:58;8.60;99.90
7970;DHT22;4030;52.362;9.206;2024-01-25T04:05:24;8.60;99.90
7970;DHT22;4030;52.362;9.206;2024-01-25T04:07:51;8.60;99.90
7970;DHT22;4030;52.362;9.206;2024-01-25T04:10:17;8.60;99.90
7970;DHT22;4030;52.362;9.206;2024-01-25T04:12:43;8.60;99.90
7970;DHT22;4030;52.362;9.206;2024-01-25T04:15:08;8.60;99.90
7970;DHT22;4030;52.362;9.206;2024-01-25T04:17:35;8.60;99.90
7970;DHT22;4030;52.362;9.206;2024-01-25T04:20:01;8.60;99.90
7970;DHT22;4030;52.362;9.206;2024-01-25T04:22:26;8.60;99.90
7970;DHT22;4030;52.362;9.206;2024-01-25T04:24:52;8.60;99.90
7970;DHT22;4030;52.362;9.206;2024-01-25T04:27:17;8.60;99.90
7970;DHT22;4030;52.362;9.206;2024-01-25T04:29:43;8.60;99.90
7970;DHT22;4030;52.362;9.206;2024-01-25T04:32:09;8.60;99.90
7970;DHT22;4030;52.362;9.206;2024-01-25T04:34:36;8.60;99.90
7970;DHT22;4030;52.362;9.206;2024-01-25T04:37:02;8.60;99.90
7970;DHT22;4030;52.362;9.206;2024-01-25T04:39:27;8.60;99.90
7970;DHT22;4030;52.362;9.206;2024-01-25T04:41:53;8.60;99.90
7970;DHT22;4030;52.362;9.206;2024-01-25T04:44:19;8.60;99.90
7970;DHT22;4030;52.362;9.206;2024-01-25T04:46:44;8.60;99.90
7970;DHT22;4030;52.362;9.206;2024-01-25T04:49:10;8.60;99.90
7970;DHT22;4030;52.362;9.206;2024-01-25T04:51:36;8.60;99.90
7970;DHT22;4030;52.362;9.206;2024-01-25T04:54:02;8.70;99.90
7970;DHT22;4030;52.362;9.206;2024-01-25T04:56:28;8.60;99.90
7970;DHT22;4030;52.362;9.206;2024-01-25T04:58:54;8.60;99.90
7970;DHT22;4030;52.362;9.206;2024-01-25T05:01:19;8.60;99.90
7970;DHT22;4030;52.362;9.206;2024-01-25T05:03:45;8.60;99.90
7970;DHT22;4030;52.362;9.206;2024-01-25T05:06:11;8.60;99.90
7970;DHT22;4030;52.362;9.206;2024-01-25T05:08:37;8.60;99.90
7970;DHT22;4030;52.362;9.206;2024-01-25T05:11:02;8.70;99.90
7970;DHT22;4030;52.362;9.206;2024-01-25T05:13:28;8.60;99.90
7970;DHT22;4030;52.362;9.206;2024-01-25T05:15:54;8.60;99.90
7970;DHT22;4030;52.362;9.206;2024-01-25T05:18:19;8.60;99.90
7970;DHT22;4030;52.362;9.206;2024-01-25T05:20:45;8.60;99.90
7970;DHT22;4030;52.362;9.206;2024-01-25T05:23:11;8.60;99.90
7970;DHT22;4030;52.362;9.206;2024-01-25T05:25:36;8.60;99.90
7970;DHT22;4030;52.362;9.206;2024-01-25T05:28:02;8.60;99.90
7970;DHT22;4030;52.362;9.206;2024-01-25T05:30:28;8.60;99.90
7970;DHT22;4030;52.362;9.206;2024-01-25T05:32:55;8.60;99.90
7970;DHT22;4030;52.362;9.206;2024-01-25T05:35:21;8.60;99.90
7970;DHT22;4030;52.362;9.206;2024-01-25T05:37:46;8.60;99.90
7970;DHT22;4030;52.362;9.206;2024-01-25T05:40:12;8.60;99.90
7970;DHT22;4030;52.362;9.206;2024-01-25T05:42:38;8.60;99.90
7970;DHT22;4030;52.362;9.206;2024-01-25T05:45:05;8.60;99.90
7970;DHT22;4030;52.362;9.206;2024-01-25T05:47:31;8.60;99.90
7970;DHT22;4030;52.362;9.206;2024-01-25T05:49:57;8.60;99.90
7970;DHT22;4030;52.362;9.206;2024-01-25T05:52:23;8.60;99.90
7970;DHT22;4030;52.362;9.206;2024-01-25T05:54:50;8.60;99.90
7970;DHT22;4030;52.362;9.206;2024-01-25T05:57:16;8.60;99.90
7970;DHT22;4030;52.362;9.206;2024-01-25T05:59:42;8.60;99.90
7970;DHT22;4030;52.362;9.206;2024-01-25T06:02:09;8.60;99.90
7970;DHT22;4030;52.362;9.206;2024-01-25T06:04:35;8.60;99.90
7970;DHT22;4030;52.362;9.206;2024-01-25T06:07:00;8.50;99.90
7970;DHT22;4030;52.362;9.206;2024-01-25T06:09:26;8.50;99.90
7970;DHT22;4030;52.362;9.206;2024-01-25T06:11:52;8.60;99.90
7970;DHT22;4030;52.362;9.206;2024-01-25T06:14:18;8.60;99.90
7970;DHT22;4030;52.362;9.206;2024-01-25T06:16:44;8.50;99.90
7970;DHT22;4030;52.362;9.206;2024-01-25T06:19:10;8.50;99.90
7970;DHT22;4030;52.362;9.206;2024-01-25T06:21:36;8.50;99.90
7970;DHT22;4030;52.362;9.206;2024-01-25T06:24:03;8.50;99.90
7970;DHT22;4030;52.362;9.206;2024-01-25T06:26:32;8.50;99.90
7970;DHT22;4030;52.362;9.206;2024-01-25T06:28:58;8.50;99.90
7970;DHT22;4030;52.362;9.206;2024-01-25T06:31:24;8.50;99.90
7970;DHT22;4030;52.362;9.206;2024-01-25T06:33:50;8.50;99.90
7970;DHT22;4030;52.362;9.206;2024-01-25T06:36:18;8.50;99.90
7970;DHT22;4030;52.362;9.206;2024-01-25T06:38:44;8.50;99.90
7970;DHT22;4030;52.362;9.206;2024-01-25T06:41:10;8.50;99.90
7970;DHT22;4030;52.362;9.206;2024-01-25T06:43:35;8.50;99.90
7970;DHT22;4030;52.362;9.206;2024-01-25T06:46:01;8.50;99.90
7970;DHT22;4030;52.362;9.206;2024-01-25T06:48:27;8.50;99.90
7970;DHT22;4030;52.362;9.206;2024-01-25T06:50:53;8.50;99.90
7970;DHT22;4030;52.362;9.206;2024-01-25T06:53:19;8.50;99.90
7970;DHT22;4030;52.362;9.206;2024-01-25T06:55:46;8.40;99.90
7970;DHT22;4030;52.362;9.206;2024-01-25T06:58:11;8.40;99.90
7970;DHT22;4030;52.362;9.206;2024-01-25T07:00:38;8.50;99.90
7970;DHT22;4030;52.362;9.206;2024-01-25T07:03:05;8.40;99.90
7970;DHT22;4030;52.362;9.206;2024-01-25T07:05:30;8.40;99.90
7970;DHT22;4030;52.362;9.206;2024-01-25T07:07:59;8.40;99.90
7970;DHT22;4030;52.362;9.206;2024-01-25T07:10:25;8.40;99.90
7970;DHT22;4030;52.362;9.206;2024-01-25T07:12:50;8.40;99.90
7970;DHT22;4030;52.362;9.206;2024-01-25T07:15:17;8.40;99.90
7970;DHT22;4030;52.362;9.206;2024-01-25T07:17:43;8.40;99.90
7970;DHT22;4030;52.362;9.206;2024-01-25T07:20:09;8.40;99.90
7970;DHT22;4030;52.362;9.206;2024-01-25T07:22:35;8.40;99.90
7970;DHT22;4030;52.362;9.206;2024-01-25T07:25:01;8.40;99.90
7970;DHT22;4030;52.362;9.206;2024-01-25T07:27:27;8.40;99.90
7970;DHT22;4030;52.362;9.206;2024-01-25T07:29:52;8.40;99.90
7970;DHT22;4030;52.362;9.206;2024-01-25T07:32:19;8.40;99.90
7970;DHT22;4030;52.362;9.206;2024-01-25T07:34:45;8.40;99.90
7970;DHT22;4030;52.362;9.206;2024-01-25T07:37:11;8.40;99.90
7970;DHT22;4030;52.362;9.206;2024-01-25T07:39:37;8.40;99.90
7970;DHT22;4030;52.362;9.206;2024-01-25T07:42:03;8.40;99.90
7970;DHT22;4030;52.362;9.206;2024-01-25T07:44:29;8.40;99.90
7970;DHT22;4030;52.362;9.206;2024-01-25T07:46:54;8.40;99.90
7970;DHT22;4030;52.362;9.206;2024-01-25T07:49:20;8.40;99.90
7970;DHT22;4030;52.362;9.206;2024-01-25T07:51:46;8.40;99.90
7970;DHT22;4030;52.362;9.206;2024-01-25T07:54:12;8.40;99.90
7970;DHT22;4030;52.362;9.206;2024-01-25T07:56:38;8.50;99.90
7970;DHT22;4030;52.362;9.206;2024-01-25T07:59:03;8.50;99.90
7970;DHT22;4030;52.362;9.206;2024-01-25T08:01:29;7.50;99.90
7970;DHT22;4030;52.362;9.206;2024-01-25T08:03:55;8.50;99.90
7970;DHT22;4030;52.362;9.206;2024-01-25T08:06:21;8.50;99.90
7970;DHT22;4030;52.362;9.206;2024-01-25T08:08:48;8.50;99.90
7970;DHT22;4030;52.362;9.206;2024-01-25T08:11:13;8.50;99.90
7970;DHT22;4030;52.362;9.206;2024-01-25T08:13:44;8.50;99.90
7970;DHT22;4030;52.362;9.206;2024-01-25T08:16:10;8.50;99.90
7970;DHT22;4030;52.362;9.206;2024-01-25T08:18:39;8.50;99.90
7970;DHT22;4030;52.362;9.206;2024-01-25T08:21:05;8.60;99.90
7970;DHT22;4030;52.362;9.206;2024-01-25T08:23:31;8.60;99.90
7970;DHT22;4030;52.362;9.206;2024-01-25T08:25:57;8.60;99.90
7970;DHT22;4030;52.362;9.206;2024-01-25T08:28:22;8.60;99.90
7970;DHT22;4030;52.362;9.206;2024-01-25T08:30:48;8.60;99.90
7970;DHT22;4030;52.362;9.206;2024-01-25T08:33:14;8.60;99.90
7970;DHT22;4030;52.362;9.206;2024-01-25T08:35:40;8.60;99.90
7970;DHT22;4030;52.362;9.206;2024-01-25T08:38:06;8.70;99.90
7970;DHT22;4030;52.362;9.206;2024-01-25T08:40:32;8.70;99.90
7970;DHT22;4030;52.362;9.206;2024-01-25T08:42:59;8.70;99.90
7970;DHT22;4030;52.362;9.206;2024-01-25T08:45:24;8.70;99.90
7970;DHT22;4030;52.362;9.206;2024-01-25T08:47:50;8.70;99.90
7970;DHT22;4030;52.362;9.206;2024-01-25T08:50:17;8.70;99.90
7970;DHT22;4030;52.362;9.206;2024-01-25T08:52:43;8.70;99.90
7970;DHT22;4030;52.362;9.206;2024-01-25T08:55:09;8.70;99.90
7970;DHT22;4030;52.362;9.206;2024-01-25T08:57:35;8.80;99.90
7970;DHT22;4030;52.362;9.206;2024-01-25T09:00:02;8.80;99.90
7970;DHT22;4030;52.362;9.206;2024-01-25T09:02:33;8.80;99.90
7970;DHT22;4030;52.362;9.206;2024-01-25T09:04:59;8.90;99.90
7970;DHT22;4030;52.362;9.206;2024-01-25T09:07:25;8.90;99.90
7970;DHT22;4030;52.362;9.206;2024-01-25T09:09:51;8.90;99.90
7970;DHT22;4030;52.362;9.206;2024-01-25T09:12:16;8.90;99.90
7970;DHT22;4030;52.362;9.206;2024-01-25T09:14:42;9.00;99.90
7970;DHT22;4030;52.362;9.206;2024-01-25T09:17:08;9.00;99.90
7970;DHT22;4030;52.362;9.206;2024-01-25T09:19:34;9.00;99.90
7970;DHT22;4030;52.362;9.206;2024-01-25T09:22:00;9.00;99.90
7970;DHT22;4030;52.362;9.206;2024-01-25T09:24:30;9.10;99.90
7970;DHT22;4030;52.362;9.206;2024-01-25T09:26:56;9.10;99.90
7970;DHT22;4030;52.362;9.206;2024-01-25T09:29:24;9.10;99.90
7970;DHT22;4030;52.362;9.206;2024-01-25T09:31:50;9.20;99.90
7970;DHT22;4030;52.362;9.206;2024-01-25T09:34:16;9.20;99.90
7970;DHT22;4030;52.362;9.206;2024-01-25T09:36:41;9.20;99.90
7970;DHT22;4030;52.362;9.206;2024-01-25T09:39:07;9.30;99.90
7970;DHT22;4030;52.362;9.206;2024-01-25T09:41:33;9.30;99.90
7970;DHT22;4030;52.362;9.206;2024-01-25T09:43:59;9.40;99.90
7970;DHT22;4030;52.362;9.206;2024-01-25T09:46:25;9.40;99.90
7970;DHT22;4030;52.362;9.206;2024-01-25T09:48:51;9.50;99.90
7970;DHT22;4030;52.362;9.206;2024-01-25T09:51:17;9.50;99.90
7970;DHT22;4030;52.362;9.206;2024-01-25T09:53:43;9.50;99.90
7970;DHT22;4030;52.362;9.206;2024-01-25T09:56:12;9.50;99.90
7970;DHT22;4030;52.362;9.206;2024-01-25T10:01:09;9.50;99.90
7970;DHT22;4030;52.362;9.206;2024-01-25T10:03:36;9.60;99.90
7970;DHT22;4030;52.362;9.206;2024-01-25T10:06:02;9.60;99.90
7970;DHT22;4030;52.362;9.206;2024-01-25T10:08:29;9.60;99.90
7970;DHT22;4030;52.362;9.206;2024-01-25T10:10:55;9.70;99.90
7970;DHT22;4030;52.362;9.206;2024-01-25T10:13:21;9.70;99.90
7970;DHT22;4030;52.362;9.206;2024-01-25T10:15:47;9.70;99.90
7970;DHT22;4030;52.362;9.206;2024-01-25T10:18:14;9.80;99.90
7970;DHT22;4030;52.362;9.206;2024-01-25T10:20:42;9.80;99.90
7970;DHT22;4030;52.362;9.206;2024-01-25T10:23:08;9.80;99.90
7970;DHT22;4030;52.362;9.206;2024-01-25T10:25:37;9.80;99.80
7970;DHT22;4030;52.362;9.206;2024-01-25T10:28:04;9.80;99.80
7970;DHT22;4030;52.362;9.206;2024-01-25T10:30:32;9.90;99.80
7970;DHT22;4030;52.362;9.206;2024-01-25T10:33:00;10.00;99.20
7970;DHT22;4030;52.362;9.206;2024-01-25T10:35:26;10.00;99.10
7970;DHT22;4030;52.362;9.206;2024-01-25T10:37:53;10.00;99.00
7970;DHT22;4030;52.362;9.206;2024-01-25T10:40:19;10.00;99.00
7970;DHT22;4030;52.362;9.206;2024-01-25T10:42:46;10.10;99.10
7970;DHT22;4030;52.362;9.206;2024-01-25T10:45:12;10.00;99.00
7970;DHT22;4030;52.362;9.206;2024-01-25T10:47:38;10.00;99.10
7970;DHT22;4030;52.362;9.206;2024-01-25T10:50:07;10.10;99.20
7970;DHT22;4030;52.362;9.206;2024-01-25T10:52:37;10.10;99.10
7970;DHT22;4030;52.362;9.206;2024-01-25T10:55:05;10.10;99.00
7970;DHT22;4030;52.362;9.206;2024-01-25T10:57:43;10.10;99.00
7970;DHT22;4030;52.362;9.206;2024-01-25T11:00:12;10.10;99.00
7970;DHT22;4030;52.362;9.206;2024-01-25T11:02:40;10.10;99.10
7970;DHT22;4030;52.362;9.206;2024-01-25T11:05:13;10.10;99.10
7970;DHT22;4030;52.362;9.206;2024-01-25T11:07:43;10.10;99.10
7970;DHT22;4030;52.362;9.206;2024-01-25T11:10:22;10.10;99.10
7970;DHT22;4030;52.362;9.206;2024-01-25T11:12:58;10.10;99.20
7970;DHT22;4030;52.362;9.206;2024-01-25T11:15:36;10.00;99.20
7970;DHT22;4030;52.362;9.206;2024-01-25T11:18:03;10.00;99.30
7970;DHT22;4030;52.362;9.206;2024-01-25T11:20:34;10.00;99.40
7970;DHT22;4030;52.362;9.206;2024-01-25T11:23:05;10.00;99.80
7970;DHT22;4030;52.362;9.206;2024-01-25T11:25:34;10.00;99.50
7970;DHT22;4030;52.362;9.206;2024-01-25T11:28:02;10.00;99.50
7970;DHT22;4030;52.362;9.206;2024-01-25T11:30:32;10.20;99.40
7970;DHT22;4030;52.362;9.206;2024-01-25T11:32:59;10.30;99.20
7970;DHT22;4030;52.362;9.206;2024-01-25T11:35:25;10.90;98.90
7970;DHT22;4030;52.362;9.206;2024-01-25T11:37:52;11.10;98.30
7970;DHT22;4030;52.362;9.206;2024-01-25T11:40:18;11.30;98.00
7970;DHT22;4030;52.362;9.206;2024-01-25T11:42:47;11.70;97.80
7970;DHT22;4030;52.362;9.206;2024-01-25T11:45:14;12.00;97.20
7970;DHT22;4030;52.362;9.206;2024-01-25T11:47:41;12.30;96.90
7970;DHT22;4030;52.362;9.206;2024-01-25T11:50:09;12.90;96.20
7970;DHT22;4030;52.362;9.206;2024-01-25T11:52:36;15.30;93.80
7970;DHT22;4030;52.362;9.206;2024-01-25T11:55:07;16.20;91.00
7970;DHT22;4030;52.362;9.206;2024-01-25T11:57:38;17.70;88.20
7970;DHT22;4030;52.362;9.206;2024-01-25T12:00:10;18.80;80.80
7970;DHT22;4030;52.362;9.206;2024-01-25T12:02:39;20.90;72.60
7970;DHT22;4030;52.362;9.206;2024-01-25T12:05:05;22.10;65.00
7970;DHT22;4030;52.362;9.206;2024-01-25T12:07:32;23.10;59.40
7970;DHT22;4030;52.362;9.206;2024-01-25T12:10:06;24.80;54.90
7970;DHT22;4030;52.362;9.206;2024-01-25T12:12:35;25.60;51.20
7970;DHT22;4030;52.362;9.206;2024-01-25T12:15:03;26.40;48.80
7970;DHT22;4030;52.362;9.206;2024-01-25T12:17:30;26.90;47.40
7970;DHT22;4030;52.362;9.206;2024-01-25T12:19:57;27.30;46.80
7970;DHT22;4030;52.362;9.206;2024-01-25T12:22:26;27.50;44.70
7970;DHT22;4030;52.362;9.206;2024-01-25T12:24:56;26.60;45.20
7970;DHT22;4030;52.362;9.206;2024-01-25T12:27:24;24.80;47.60
7970;DHT22;4030;52.362;9.206;2024-01-25T12:29:51;23.10;50.40
7970;DHT22;4030;52.362;9.206;2024-01-25T12:32:20;21.70;53.50
7970;DHT22;4030;52.362;9.206;2024-01-25T12:34:56;20.50;56.50
7970;DHT22;4030;52.362;9.206;2024-01-25T12:37:22;19.80;59.20
7970;DHT22;4030;52.362;9.206;2024-01-25T12:39:49;19.10;61.00
7970;DHT22;4030;52.362;9.206;2024-01-25T12:42:16;18.30;64.70
7970;DHT22;4030;52.362;9.206;2024-01-25T12:44:42;17.90;66.90
7970;DHT22;4030;52.362;9.206;2024-01-25T12:47:08;17.70;68.30
7970;DHT22;4030;52.362;9.206;2024-01-25T12:49:34;17.30;70.00
7970;DHT22;4030;52.362;9.206;2024-01-25T12:52:00;17.00;72.80
7970;DHT22;4030;52.362;9.206;2024-01-25T12:54:26;16.30;72.20
7970;DHT22;4030;52.362;9.206;2024-01-25T12:56:52;16.70;74.10
7970;DHT22;4030;52.362;9.206;2024-01-25T12:59:18;16.30;76.60
7970;DHT22;4030;52.362;9.206;2024-01-25T13:01:43;16.20;77.70
7970;DHT22;4030;52.362;9.206;2024-01-25T13:04:09;16.00;78.40
7970;DHT22;4030;52.362;9.206;2024-01-25T13:06:35;15.70;79.60
7970;DHT22;4030;52.362;9.206;2024-01-25T13:09:00;15.50;81.00
7970;DHT22;4030;52.362;9.206;2024-01-25T13:11:26;15.30;82.40
7970;DHT22;4030;52.362;9.206;2024-01-25T13:13:52;15.00;83.40
7970;DHT22;4030;52.362;9.206;2024-01-25T13:16:17;14.90;84.30
7970;DHT22;4030;52.362;9.206;2024-01-25T13:18:43;14.70;85.20
7970;DHT22;4030;52.362;9.206;2024-01-25T13:21:09;14.70;86.00
7970;DHT22;4030;52.362;9.206;2024-01-25T13:23:35;14.70;86.50
7970;DHT22;4030;52.362;9.206;2024-01-25T13:26:01;14.60;86.90
7970;DHT22;4030;52.362;9.206;2024-01-25T13:28:27;14.70;87.30
7970;DHT22;4030;52.362;9.206;2024-01-25T13:30:52;14.70;87.20
7970;DHT22;4030;52.362;9.206;2024-01-25T13:33:19;14.70;87.40
7970;DHT22;4030;52.362;9.206;2024-01-25T13:35:45;14.70;87.60
7970;DHT22;4030;52.362;9.206;2024-01-25T13:38:11;14.70;87.70
7970;DHT22;4030;52.362;9.206;2024-01-25T13:40:40;14.80;87.90
7970;DHT22;4030;52.362;9.206;2024-01-25T13:43:06;14.80;87.70
7970;DHT22;4030;52.362;9.206;2024-01-25T13:45:32;14.80;88.00
7970;DHT22;4030;52.362;9.206;2024-01-25T13:47:57;14.80;88.10
7970;DHT22;4030;52.362;9.206;2024-01-25T13:50:23;14.70;88.40
7970;DHT22;4030;52.362;9.206;2024-01-25T13:52:49;14.60;88.50
7970;DHT22;4030;52.362;9.206;2024-01-25T13:55:14;14.50;89.00
7970;DHT22;4030;52.362;9.206;2024-01-25T13:57:40;14.40;89.30
7970;DHT22;4030;52.362;9.206;2024-01-25T14:00:06;14.20;89.50
7970;DHT22;4030;52.362;9.206;2024-01-25T14:02:33;14.00;90.00
7970;DHT22;4030;52.362;9.206;2024-01-25T14:04:59;13.80;90.20
7970;DHT22;4030;52.362;9.206;2024-01-25T14:07:25;13.70;90.40
7970;DHT22;4030;52.362;9.206;2024-01-25T14:09:51;13.60;90.40
7970;DHT22;4030;52.362;9.206;2024-01-25T14:12:17;13.60;90.50
7970;DHT22;4030;52.362;9.206;2024-01-25T14:14:43;13.60;90.50
7970;DHT22;4030;52.362;9.206;2024-01-25T14:17:09;13.70;90.50
7970;DHT22;4030;52.362;9.206;2024-01-25T14:19:35;13.70;90.50
7970;DHT22;4030;52.362;9.206;2024-01-25T14:22:00;13.60;90.40
7970;DHT22;4030;52.362;9.206;2024-01-25T14:24:26;13.50;90.50
7970;DHT22;4030;52.362;9.206;2024-01-25T14:26:52;13.40;90.70
7970;DHT22;4030;52.362;9.206;2024-01-25T14:29:18;13.30;90.70
7970;DHT22;4030;52.362;9.206;2024-01-25T14:31:43;13.20;90.90
7970;DHT22;4030;52.362;9.206;2024-01-25T14:34:09;13.20;91.00
7970;DHT22;4030;52.362;9.206;2024-01-25T14:36:35;13.00;91.10
7970;DHT22;4030;52.362;9.206;2024-01-25T14:39:01;13.00;91.20
7970;DHT22;4030;52.362;9.206;2024-01-25T14:41:29;13.00;91.30
7970;DHT22;4030;52.362;9.206;2024-01-25T14:43:55;12.90;91.40
7970;DHT22;4030;52.362;9.206;2024-01-25T14:46:21;12.80;91.40
7970;DHT22;4030;52.362;9.206;2024-01-25T14:48:47;12.70;91.50
7970;DHT22;4030;52.362;9.206;2024-01-25T14:51:13;12.70;91.60
7970;DHT22;4030;52.362;9.206;2024-01-25T14:53:39;12.60;91.70
7970;DHT22;4030;52.362;9.206;2024-01-25T14:56:04;12.50;91.80
7970;DHT22;4030;52.362;9.206;2024-01-25T14:58:30;12.40;91.80
7970;DHT22;4030;52.362;9.206;2024-01-25T15:00:57;12.30;91.80
7970;DHT22;4030;52.362;9.206;2024-01-25T15:03:22;12.20;91.90
7970;DHT22;4030;52.362;9.206;2024-01-25T15:05:48;12.10;92.10
7970;DHT22;4030;52.362;9.206;2024-01-25T15:08:14;12.00;92.20
7970;DHT22;4030;52.362;9.206;2024-01-25T15:10:39;11.90;92.20
7970;DHT22;4030;52.362;9.206;2024-01-25T15:13:06;11.80;92.40
7970;DHT22;4030;52.362;9.206;2024-01-25T15:15:32;11.70;92.90
7970;DHT22;4030;52.362;9.206;2024-01-25T15:17:58;11.60;92.60
7970;DHT22;4030;52.362;9.206;2024-01-25T15:20:24;11.60;92.70
7970;DHT22;4030;52.362;9.206;2024-01-25T15:22:50;11.50;92.80
7970;DHT22;4030;52.362;9.206;2024-01-25T15:25:17;11.40;92.90
7970;DHT22;4030;52.362;9.206;2024-01-25T15:27:43;11.30;93.00
7970;DHT22;4030;52.362;9.206;2024-01-25T15:30:09;11.20;93.00
7970;DHT22;4030;52.362;9.206;2024-01-25T15:32:36;11.20;93.20
7970;DHT22;4030;52.362;9.206;2024-01-25T15:35:03;11.10;93.20
7970;DHT22;4030;52.362;9.206;2024-01-25T15:37:29;11.00;93.30
7970;DHT22;4030;52.362;9.206;2024-01-25T15:39:54;10.90;93.40
7970;DHT22;4030;52.362;9.206;2024-01-25T15:42:20;10.90;93.50
7970;DHT22;4030;52.362;9.206;2024-01-25T15:44:46;10.80;93.50
7970;DHT22;4030;52.362;9.206;2024-01-25T15:47:11;10.80;93.60
7970;DHT22;4030;52.362;9.206;2024-01-25T15:49:39;10.70;93.70
7970;DHT22;4030;52.362;9.206;2024-01-25T15:52:05;10.70;93.80
7970;DHT22;4030;52.362;9.206;2024-01-25T15:54:30;10.60;93.80
7970;DHT22;4030;52.362;9.206;2024-01-25T15:56:56;10.50;93.90
7970;DHT22;4030;52.362;9.206;2024-01-25T15:59:22;10.50;93.90
7970;DHT22;4030;52.362;9.206;2024-01-25T16:01:47;10.40;94.00
7970;DHT22;4030;52.362;9.206;2024-01-25T16:04:13;10.40;94.10
7970;DHT22;4030;52.362;9.206;2024-01-25T16:06:39;10.30;94.20
7970;DHT22;4030;52.362;9.206;2024-01-25T16:09:04;10.20;94.20